createdAt,value
2018-09-01T00:01:33.334Z,16.15
2018-09-01T00:04:02.306Z,16.13
2018-09-01T00:06:31.231Z,16.12
2018-09-01T00:09:04.735Z,16.07
2018-09-01T00:11:33.658Z,16.02
2018-09-01T00:14:02.689Z,15.93
2018-09-01T00:16:31.580Z,15.98
2018-09-01T00:19:00.509Z,15.87
2018-09-01T00:21:29.486Z,15.79
2018-09-01T00:24:00.999Z,15.74
2018-09-01T00:26:30.006Z,15.74
2018-09-01T00:28:58.933Z,15.71
2018-09-01T00:31:27.900Z,15.72
2018-09-01T00:33:56.878Z,15.76
2018-09-01T00:36:25.785Z,15.79
2018-09-01T00:39:00.035Z,15.85
2018-09-01T00:41:28.916Z,15.71
2018-09-01T00:43:57.853Z,15.56
2018-09-01T00:46:26.812Z,15.65
2018-09-01T00:48:55.770Z,15.61
2018-09-01T00:51:24.699Z,15.60
2018-09-01T00:53:53.632Z,15.67
2018-09-01T00:56:22.547Z,15.58
2018-09-01T00:58:51.529Z,15.56
2018-09-01T01:01:20.492Z,15.60
2018-09-01T01:03:49.488Z,15.65
2018-09-01T01:06:18.471Z,15.67
2018-09-01T01:08:47.399Z,15.69
2018-09-01T01:11:17.689Z,15.72
2018-09-01T01:13:46.995Z,15.69
2018-09-01T01:16:16.182Z,15.61
2018-09-01T01:18:45.104Z,15.57
2018-09-01T01:21:14.103Z,15.52
2018-09-01T01:23:43.014Z,15.53
2018-09-01T01:26:11.963Z,15.52
2018-09-01T01:28:41.924Z,15.50
2018-09-01T01:31:10.898Z,15.47
2018-09-01T01:33:39.806Z,15.42
2018-09-01T01:36:08.799Z,15.41
2018-09-01T01:38:37.732Z,15.35
2018-09-01T01:41:06.752Z,15.26
2018-09-01T01:43:35.700Z,15.23
2018-09-01T01:46:04.606Z,15.20
2018-09-01T01:48:33.622Z,15.26
2018-09-01T01:51:02.508Z,15.36
2018-09-01T01:53:31.398Z,15.21
2018-09-01T01:56:00.318Z,15.15
2018-09-01T01:58:29.282Z,15.08
2018-09-01T02:00:58.228Z,15.16
2018-09-01T02:03:27.180Z,15.14
2018-09-01T02:05:56.800Z,15.14
2018-09-01T02:08:25.692Z,15.16
2018-09-01T02:10:54.593Z,15.09
2018-09-01T02:13:23.563Z,15.09
2018-09-01T02:15:52.741Z,15.20
2018-09-01T02:18:21.632Z,15.34
2018-09-01T02:20:50.516Z,15.31
2018-09-01T02:23:19.488Z,15.40
2018-09-01T02:25:48.386Z,15.39
2018-09-01T02:28:17.306Z,15.33
2018-09-01T02:30:46.358Z,15.36
2018-09-01T02:33:15.256Z,15.35
2018-09-01T02:35:44.132Z,15.38
2018-09-01T02:38:13.044Z,15.37
2018-09-01T02:40:41.922Z,15.32
2018-09-01T02:43:10.860Z,15.34
2018-09-01T02:45:39.884Z,15.29
2018-09-01T02:48:08.804Z,15.31
2018-09-01T02:50:37.732Z,15.17
2018-09-01T02:53:06.618Z,15.20
2018-09-01T02:55:35.532Z,15.22
2018-09-01T02:58:04.608Z,15.07
2018-09-01T03:00:37.411Z,14.99
2018-09-01T03:03:06.340Z,14.79
2018-09-01T03:05:35.261Z,14.91
2018-09-01T03:08:04.181Z,14.86
2018-09-01T03:10:33.058Z,14.71
2018-09-01T03:13:01.979Z,14.75
2018-09-01T03:15:30.867Z,14.70
2018-09-01T03:17:59.788Z,14.68
2018-09-01T03:20:28.814Z,14.39
2018-09-01T03:22:57.702Z,14.55
2018-09-01T03:25:26.632Z,14.54
2018-09-01T03:27:55.626Z,14.61
2018-09-01T03:30:24.508Z,14.69
2018-09-01T03:32:53.384Z,14.57
2018-09-01T03:35:22.448Z,14.27
2018-09-01T03:37:51.446Z,14.31
2018-09-01T03:40:20.418Z,14.27
2018-09-01T03:42:49.409Z,14.45
2018-09-01T03:45:18.308Z,14.33
2018-09-01T03:47:47.212Z,14.45
2018-09-01T03:50:16.102Z,14.43
2018-09-01T03:52:44.998Z,14.38
2018-09-01T03:55:13.982Z,14.50
2018-09-01T03:57:42.919Z,14.30
2018-09-01T04:00:11.867Z,14.38
2018-09-01T04:02:40.852Z,14.14
2018-09-01T04:05:09.772Z,14.16
2018-09-01T04:07:38.921Z,14.22
2018-09-01T04:10:07.874Z,14.20
2018-09-01T04:12:36.802Z,14.20
2018-09-01T04:15:06.515Z,14.35
2018-09-01T04:17:35.449Z,14.21
2018-09-01T04:20:04.487Z,14.05
2018-09-01T04:22:33.472Z,14.27
2018-09-01T04:25:02.445Z,14.35
2018-09-01T04:27:31.795Z,14.14
2018-09-01T04:30:00.735Z,14.17
2018-09-01T04:32:29.788Z,13.99
2018-09-01T04:34:58.711Z,13.84
2018-09-01T04:37:27.616Z,14.07
2018-09-01T04:39:56.515Z,14.23
2018-09-01T04:42:25.443Z,14.26
2018-09-01T04:44:54.360Z,14.35
2018-09-01T04:47:23.376Z,14.19
2018-09-01T04:49:52.271Z,14.33
2018-09-01T04:52:21.228Z,14.16
2018-09-01T04:54:50.141Z,14.34
2018-09-01T04:57:19.057Z,14.36
2018-09-01T04:59:48.084Z,14.44
2018-09-01T05:02:17.012Z,14.43
2018-09-01T05:04:47.091Z,14.41
2018-09-01T05:07:16.017Z,14.24
2018-09-01T05:09:44.935Z,14.17
2018-09-01T05:12:15.824Z,14.30
2018-09-01T05:14:44.862Z,14.07
2018-09-01T05:17:13.774Z,13.85
2018-09-01T05:19:42.775Z,14.19
2018-09-01T05:22:11.759Z,14.15
2018-09-01T05:24:40.696Z,13.96
2018-09-01T05:27:09.754Z,14.13
2018-09-01T05:29:38.631Z,14.15
2018-09-01T05:32:07.586Z,14.25
2018-09-01T05:34:36.532Z,14.05
2018-09-01T05:37:05.777Z,14.08
2018-09-01T05:39:34.757Z,13.90
2018-09-01T05:42:03.755Z,14.10
2018-09-01T05:44:32.705Z,14.01
2018-09-01T05:47:01.734Z,13.95
2018-09-01T05:49:30.743Z,13.75
2018-09-01T05:52:00.363Z,13.93
2018-09-01T05:54:29.294Z,13.86
2018-09-01T05:56:58.233Z,14.00
2018-09-01T05:59:27.163Z,14.07
2018-09-01T06:01:56.119Z,14.28
2018-09-01T06:04:25.007Z,14.17
2018-09-01T06:06:54.003Z,14.37
2018-09-01T06:09:22.903Z,14.43
2018-09-01T06:11:51.913Z,14.34
2018-09-01T06:14:20.885Z,14.23
2018-09-01T06:16:49.839Z,14.50
2018-09-01T06:19:19.045Z,14.25
2018-09-01T06:21:47.905Z,14.57
2018-09-01T06:24:16.837Z,14.63
2018-09-01T06:26:45.786Z,14.52
2018-09-01T06:29:16.989Z,14.66
2018-09-01T06:31:50.399Z,14.65
2018-09-01T06:34:19.376Z,14.81
2018-09-01T06:36:48.435Z,14.86
2018-09-01T06:39:17.370Z,14.90
2018-09-01T06:41:46.345Z,14.98
2018-09-01T06:44:15.316Z,15.04
2018-09-01T06:46:44.206Z,15.12
2018-09-01T06:49:13.283Z,15.15
2018-09-01T06:51:42.251Z,15.21
2018-09-01T06:54:11.804Z,15.31
2018-09-01T06:56:40.949Z,15.40
2018-09-01T06:59:09.936Z,15.53
2018-09-01T07:01:40.991Z,15.61
2018-09-01T07:04:09.959Z,15.71
2018-09-01T07:06:38.841Z,15.87
2018-09-01T07:09:08.008Z,16.08
2018-09-01T07:11:37.259Z,16.34
2018-09-01T07:14:06.290Z,16.65
2018-09-01T07:16:35.393Z,16.77
2018-09-01T07:19:04.321Z,16.75
2018-09-01T07:21:33.283Z,17.05
2018-09-01T07:24:02.204Z,17.16
2018-09-01T07:26:31.168Z,17.28
2018-09-01T07:29:00.107Z,17.52
2018-09-01T07:31:29.441Z,17.93
2018-09-01T07:33:58.008Z,17.82
2018-09-01T07:36:26.924Z,17.83
2018-09-01T07:38:55.887Z,17.86
2018-09-01T07:41:24.767Z,18.19
2018-09-01T07:43:53.675Z,18.37
2018-09-01T07:46:22.642Z,18.56
2018-09-01T07:48:51.552Z,18.27
2018-09-01T07:51:20.509Z,18.49
2018-09-01T07:53:49.548Z,18.27
2018-09-01T07:56:18.654Z,18.44
2018-09-01T07:58:47.467Z,18.45
2018-09-01T08:01:16.343Z,18.07
2018-09-01T08:03:45.268Z,18.24
2018-09-01T08:06:14.191Z,18.48
2018-09-01T08:08:43.138Z,18.75
2018-09-01T08:11:12.028Z,18.90
2018-09-01T08:13:40.972Z,18.51
2018-09-01T08:16:10.028Z,18.74
2018-09-01T08:18:38.961Z,18.77
2018-09-01T08:21:07.957Z,18.83
2018-09-01T08:23:36.855Z,18.90
2018-09-01T08:26:06.065Z,19.01
2018-09-01T08:28:34.936Z,18.61
2018-09-01T08:31:04.003Z,18.54
2018-09-01T08:33:32.988Z,18.58
2018-09-01T08:36:01.993Z,18.71
2018-09-01T08:38:30.899Z,18.81
2018-09-01T08:40:59.831Z,19.00
2018-09-01T08:43:28.759Z,19.12
2018-09-01T08:45:58.603Z,18.94
2018-09-01T08:48:27.531Z,19.03
2018-09-01T08:50:56.544Z,18.97
2018-09-01T08:53:26.572Z,18.99
2018-09-01T08:55:57.600Z,18.89
2018-09-01T08:58:26.656Z,19.07
2018-09-01T09:00:55.630Z,19.12
2018-09-01T09:03:24.496Z,18.89
2018-09-01T09:05:53.376Z,18.71
2018-09-01T09:08:22.324Z,18.88
2018-09-01T09:10:51.302Z,18.83
2018-09-01T09:13:20.286Z,18.53
2018-09-01T09:15:49.271Z,18.56
2018-09-01T09:18:19.182Z,18.62
2018-09-01T09:20:48.134Z,18.48
2018-09-01T09:23:17.050Z,18.29
2018-09-01T09:25:45.930Z,18.55
2018-09-01T09:28:14.864Z,18.57
2018-09-01T09:30:43.785Z,18.79
2018-09-01T09:33:12.700Z,18.75
2018-09-01T09:35:41.601Z,18.71
2018-09-01T09:38:10.489Z,18.56
2018-09-01T09:40:39.447Z,18.71
2018-09-01T09:43:08.359Z,18.62
2018-09-01T09:45:37.333Z,18.64
2018-09-01T09:48:06.220Z,18.62
2018-09-01T09:50:35.278Z,18.55
2018-09-01T09:53:04.330Z,18.60
2018-09-01T09:55:33.263Z,18.60
2018-09-01T09:58:02.238Z,18.53
2018-09-01T10:00:36.622Z,18.60
2018-09-01T10:03:05.511Z,18.54
2018-09-01T10:05:34.438Z,18.44
2018-09-01T10:08:03.343Z,18.58
2018-09-01T10:10:32.291Z,18.65
2018-09-01T10:13:01.156Z,18.41
2018-09-01T10:15:30.070Z,18.48
2018-09-01T10:17:58.956Z,18.42
2018-09-01T10:20:27.963Z,18.46
2018-09-01T10:22:56.756Z,18.49
2018-09-01T10:25:28.632Z,18.60
2018-09-01T10:27:57.565Z,18.48
2018-09-01T10:30:26.502Z,18.55
2018-09-01T10:32:55.436Z,18.69
2018-09-01T10:35:24.334Z,18.79
2018-09-01T10:37:53.232Z,18.61
2018-09-01T10:40:22.162Z,18.68
2018-09-01T10:42:51.075Z,18.83
2018-09-01T10:45:26.735Z,18.86
2018-09-01T10:47:55.754Z,18.69
2018-09-01T10:50:24.719Z,18.65
2018-09-01T10:52:53.695Z,18.81
2018-09-01T10:55:22.640Z,18.84
2018-09-01T10:57:51.615Z,18.77
2018-09-01T11:00:21.274Z,18.95
2018-09-01T11:02:51.634Z,19.07
2018-09-01T11:05:21.155Z,19.04
2018-09-01T11:07:50.239Z,19.25
2018-09-01T11:10:20.576Z,19.31
2018-09-01T11:12:49.465Z,19.31
2018-09-01T11:15:18.444Z,19.26
2018-09-01T11:17:47.313Z,19.19
2018-09-01T11:20:16.304Z,19.14
2018-09-01T11:22:45.164Z,19.01
2018-09-01T11:25:14.127Z,19.05
2018-09-01T11:27:43.053Z,19.05
2018-09-01T11:30:12.308Z,19.12
2018-09-01T11:32:41.460Z,19.15
2018-09-01T11:35:10.564Z,19.37
2018-09-01T11:37:39.431Z,19.34
2018-09-01T11:40:08.362Z,19.40
2018-09-01T11:42:37.311Z,19.49
2018-09-01T11:45:06.279Z,19.47
2018-09-01T11:47:35.218Z,19.34
2018-09-01T11:50:04.197Z,19.36
2018-09-01T11:52:33.174Z,19.42
2018-09-01T11:55:03.207Z,19.44
2018-09-01T11:57:32.148Z,19.41
2018-09-01T12:00:01.049Z,19.55
2018-09-01T12:02:30.048Z,19.61
2018-09-01T12:04:58.920Z,19.55
2018-09-01T12:07:27.997Z,19.67
2018-09-01T12:09:57.069Z,19.79
2018-09-01T12:12:26.514Z,19.89
2018-09-01T12:14:55.642Z,20.01
2018-09-01T12:17:24.850Z,19.88
2018-09-01T12:19:54.131Z,19.95
2018-09-01T12:22:23.494Z,19.74
2018-09-01T12:24:52.570Z,19.71
2018-09-01T12:27:21.813Z,19.59
2018-09-01T12:29:50.977Z,19.65
2018-09-01T12:32:20.090Z,19.77
2018-09-01T12:34:49.370Z,19.93
2018-09-01T12:37:18.446Z,20.00
2018-09-01T12:39:47.474Z,20.01
2018-09-01T12:42:16.478Z,19.96
2018-09-01T12:44:45.609Z,19.93
2018-09-01T12:47:14.843Z,19.92
2018-09-01T12:49:44.087Z,20.00
2018-09-01T12:52:13.529Z,19.88
2018-09-01T12:54:43.263Z,19.80
2018-09-01T12:57:12.497Z,19.87
2018-09-01T12:59:41.725Z,19.89
2018-09-01T13:02:10.965Z,19.84
2018-09-01T13:04:40.087Z,19.80
2018-09-01T13:07:09.188Z,19.85
2018-09-01T13:09:38.143Z,19.87
2018-09-01T13:12:07.094Z,19.94
2018-09-01T13:14:35.984Z,19.95
2018-09-01T13:17:05.248Z,19.76
2018-09-01T13:19:34.223Z,19.96
2018-09-01T13:22:03.336Z,20.07
2018-09-01T13:24:32.438Z,20.06
2018-09-01T13:27:01.596Z,19.96
2018-09-01T13:29:32.156Z,19.95
2018-09-01T13:32:01.229Z,20.03
2018-09-01T13:34:30.506Z,20.05
2018-09-01T13:36:59.747Z,20.08
2018-09-01T13:39:28.836Z,20.24
2018-09-01T13:41:57.730Z,20.26
2018-09-01T13:44:26.686Z,20.33
2018-09-01T13:46:55.648Z,20.34
2018-09-01T13:49:24.657Z,20.36
2018-09-01T13:51:53.590Z,20.47
2018-09-01T13:54:22.527Z,20.33
2018-09-01T13:56:51.472Z,20.28
2018-09-01T13:59:20.396Z,20.39
2018-09-01T14:01:50.360Z,20.31
2018-09-01T14:04:19.508Z,20.36
2018-09-01T14:06:48.370Z,20.39
2018-09-01T14:09:17.400Z,20.31
2018-09-01T14:11:46.484Z,20.33
2018-09-01T14:14:15.571Z,20.28
2018-09-01T14:16:44.492Z,20.21
2018-09-01T14:19:13.380Z,19.91
2018-09-01T14:21:42.430Z,19.91
2018-09-01T14:24:11.326Z,19.86
2018-09-01T14:26:40.198Z,20.05
2018-09-01T14:29:09.142Z,20.11
2018-09-01T14:31:38.083Z,20.05
2018-09-01T14:34:07.067Z,20.07
2018-09-01T14:36:36.206Z,20.14
2018-09-01T14:39:07.423Z,20.11
2018-09-01T14:41:36.456Z,19.97
2018-09-01T14:44:05.391Z,19.78
2018-09-01T14:46:34.395Z,19.90
2018-09-01T14:49:03.287Z,19.98
2018-09-01T14:51:32.162Z,20.03
2018-09-01T14:54:01.077Z,19.98
2018-09-01T14:56:29.973Z,19.97
2018-09-01T14:58:58.859Z,20.06
2018-09-01T15:01:27.865Z,20.11
2018-09-01T15:03:56.807Z,20.03
2018-09-01T15:06:25.787Z,20.12
2018-09-01T15:08:54.706Z,20.07
2018-09-01T15:11:23.667Z,20.00
2018-09-01T15:13:52.692Z,19.98
2018-09-01T15:16:21.583Z,19.92
2018-09-01T15:18:50.638Z,19.97
2018-09-01T15:21:19.872Z,20.02
2018-09-01T15:23:48.752Z,20.10
2018-09-01T15:26:17.692Z,20.08
2018-09-01T15:28:46.714Z,20.20
2018-09-01T15:31:15.627Z,20.33
2018-09-01T15:33:44.612Z,20.29
2018-09-01T15:36:13.487Z,20.27
2018-09-01T15:38:42.381Z,20.28
2018-09-01T15:41:11.286Z,20.24
2018-09-01T15:43:40.194Z,20.24
2018-09-01T15:46:09.268Z,20.07
2018-09-01T15:48:39.195Z,20.10
2018-09-01T15:51:08.258Z,20.08
2018-09-01T15:53:37.176Z,20.26
2018-09-01T15:56:07.091Z,20.41
2018-09-01T15:58:36.046Z,20.37
2018-09-01T16:01:05.024Z,20.26
2018-09-01T16:03:34.052Z,20.25
2018-09-01T16:06:03.065Z,20.18
2018-09-01T16:08:31.988Z,20.43
2018-09-01T16:11:00.974Z,20.38
2018-09-01T16:13:29.922Z,20.30
2018-09-01T16:15:58.895Z,20.26
2018-09-01T16:18:27.829Z,20.40
2018-09-01T16:20:56.738Z,20.36
2018-09-01T16:23:25.605Z,20.29
2018-09-01T16:25:54.477Z,20.30
2018-09-01T16:28:23.363Z,20.20
2018-09-01T16:30:52.415Z,20.20
2018-09-01T16:33:21.295Z,20.20
2018-09-01T16:35:50.304Z,20.29
2018-09-01T16:38:19.341Z,20.23
2018-09-01T16:40:48.582Z,20.20
2018-09-01T16:43:17.603Z,20.15
2018-09-01T16:45:46.567Z,20.17
2018-09-01T16:48:15.523Z,20.12
2018-09-01T16:50:44.442Z,20.10
2018-09-01T16:53:13.355Z,20.12
2018-09-01T16:55:42.265Z,20.10
2018-09-01T16:58:11.179Z,20.05
2018-09-01T17:00:40.118Z,19.92
2018-09-01T17:03:08.984Z,20.07
2018-09-01T17:05:37.957Z,20.03
2018-09-01T17:08:06.855Z,20.03
2018-09-01T17:10:35.759Z,20.02
2018-09-01T17:13:04.755Z,20.03
2018-09-01T17:15:33.671Z,20.02
2018-09-01T17:18:02.728Z,19.97
2018-09-01T17:20:31.607Z,19.99
2018-09-01T17:23:00.553Z,19.95
2018-09-01T17:25:29.841Z,19.95
2018-09-01T17:27:58.826Z,19.95
2018-09-01T17:30:28.604Z,19.98
2018-09-01T17:32:57.502Z,19.95
2018-09-01T17:35:26.413Z,19.96
2018-09-01T17:37:55.467Z,19.96
2018-09-01T17:40:24.363Z,19.96
2018-09-01T17:42:53.245Z,19.94
2018-09-01T17:45:22.175Z,19.82
2018-09-01T17:47:51.119Z,19.82
2018-09-01T17:50:20.004Z,19.78
2018-09-01T17:52:50.041Z,19.77
2018-09-01T17:55:18.955Z,19.76
2018-09-01T17:57:47.877Z,19.71
2018-09-01T18:00:16.952Z,19.72
2018-09-01T18:02:45.877Z,19.67
2018-09-01T18:05:14.795Z,19.63
2018-09-01T18:07:43.782Z,19.61
2018-09-01T18:10:12.695Z,19.64
2018-09-01T18:12:41.941Z,19.62
2018-09-01T18:15:10.942Z,19.58
2018-09-01T18:17:40.036Z,19.54
2018-09-01T18:20:09.015Z,19.51
2018-09-01T18:22:37.937Z,19.52
2018-09-01T18:25:06.883Z,19.49
2018-09-01T18:27:35.871Z,19.44
2018-09-01T18:30:05.415Z,19.35
2018-09-01T18:32:34.465Z,19.29
2018-09-01T18:35:03.357Z,19.26
2018-09-01T18:37:32.317Z,19.15
2018-09-01T18:40:01.363Z,19.12
2018-09-01T18:42:30.344Z,19.09
2018-09-01T18:44:59.246Z,19.04
2018-09-01T18:47:28.236Z,19.00
2018-09-01T18:49:57.175Z,19.02
2018-09-01T18:52:26.035Z,18.96
2018-09-01T18:54:55.023Z,18.92
2018-09-01T18:57:23.993Z,18.85
2018-09-01T18:59:52.900Z,18.82
2018-09-01T19:02:21.915Z,18.68
2018-09-01T19:04:50.902Z,18.71
2018-09-01T19:07:19.771Z,18.74
2018-09-01T19:09:48.707Z,18.75
2018-09-01T19:12:17.623Z,18.68
2018-09-01T19:14:46.544Z,18.71
2018-09-01T19:17:15.455Z,18.63
2018-09-01T19:19:44.397Z,18.54
2018-09-01T19:22:13.800Z,18.53
2018-09-01T19:24:42.716Z,18.56
2018-09-01T19:27:11.643Z,18.55
2018-09-01T19:29:41.645Z,18.38
2018-09-01T19:32:10.527Z,18.41
2018-09-01T19:34:39.741Z,18.35
2018-09-01T19:37:08.737Z,18.42
2018-09-01T19:39:37.661Z,18.42
2018-09-01T19:42:06.679Z,18.33
2018-09-01T19:44:35.625Z,18.32
2018-09-01T19:47:04.637Z,18.28
2018-09-01T19:49:33.601Z,18.22
2018-09-01T19:52:02.523Z,18.32
2018-09-01T19:54:31.561Z,18.25
2018-09-01T19:57:00.524Z,18.30
2018-09-01T19:59:29.530Z,18.29
2018-09-01T20:01:58.618Z,18.28
2018-09-01T20:04:27.578Z,18.35
2018-09-01T20:06:56.452Z,18.16
2018-09-01T20:09:25.495Z,18.18
2018-09-01T20:11:54.505Z,18.20
2018-09-01T20:14:23.571Z,18.19
2018-09-01T20:16:53.259Z,18.14
2018-09-01T20:19:22.223Z,18.06
2018-09-01T20:21:51.534Z,18.19
2018-09-01T20:24:20.429Z,18.12
2018-09-01T20:26:49.855Z,18.16
2018-09-01T20:29:18.772Z,18.06
2018-09-01T20:31:47.699Z,18.17
2018-09-01T20:34:16.598Z,18.22
2018-09-01T20:36:45.496Z,18.26
2018-09-01T20:39:14.460Z,18.23
2018-09-01T20:41:43.598Z,18.15
2018-09-01T20:44:12.536Z,18.09
2018-09-01T20:46:41.398Z,18.01
2018-09-01T20:49:10.304Z,18.06
2018-09-01T20:51:39.182Z,18.00
2018-09-01T20:54:08.152Z,17.93
2018-09-01T20:56:37.084Z,17.81
2018-09-01T20:59:06.000Z,17.86
2018-09-01T21:01:34.916Z,17.87
2018-09-01T21:04:03.827Z,17.85
2018-09-01T21:06:32.716Z,17.79
2018-09-01T21:09:03.462Z,17.86
2018-09-01T21:11:32.346Z,17.80
2018-09-01T21:14:01.216Z,17.86
2018-09-01T21:18:59.240Z,17.84
2018-09-01T21:21:28.160Z,17.87
2018-09-01T21:23:57.070Z,17.89
2018-09-01T21:26:26.008Z,17.89
2018-09-01T21:28:56.932Z,17.83
2018-09-01T21:31:25.861Z,17.80
2018-09-01T21:33:54.790Z,17.81
2018-09-01T21:36:24.133Z,17.76
2018-09-01T21:38:53.031Z,17.76
2018-09-01T21:41:21.967Z,17.79
2018-09-01T21:43:51.203Z,17.84
2018-09-01T21:46:20.099Z,17.79
2018-09-01T21:48:49.004Z,17.75
2018-09-01T21:51:18.024Z,17.51
2018-09-01T21:53:46.948Z,17.45
2018-09-01T21:56:15.966Z,17.43
2018-09-01T21:58:45.049Z,17.44
2018-09-01T22:01:19.325Z,17.48
2018-09-01T22:03:48.972Z,17.33
2018-09-01T22:06:18.965Z,17.33
2018-09-01T22:08:48.268Z,17.35
2018-09-01T22:11:19.718Z,17.25
2018-09-01T22:13:48.704Z,17.19
2018-09-01T22:16:17.656Z,17.14
2018-09-01T22:18:46.680Z,17.10
2018-09-01T22:21:15.597Z,17.21
2018-09-01T22:23:44.487Z,17.28
2018-09-01T22:26:14.485Z,17.18
2018-09-01T22:28:43.498Z,17.29
2018-09-01T22:31:12.465Z,17.32
2018-09-01T22:33:41.294Z,17.27
2018-09-01T22:36:11.396Z,17.27
2018-09-01T22:38:40.387Z,17.38
2018-09-01T22:41:09.353Z,17.30
2018-09-01T22:43:38.244Z,17.34
2018-09-01T22:46:07.334Z,17.39
2018-09-01T22:48:36.240Z,17.23
2018-09-01T22:51:05.224Z,17.23
2018-09-01T22:53:34.220Z,17.10
2018-09-01T22:56:03.127Z,16.89
2018-09-01T22:58:32.114Z,17.14
2018-09-01T23:01:01.040Z,17.00
2018-09-01T23:03:29.983Z,17.02
2018-09-01T23:05:58.885Z,16.87
2018-09-01T23:08:28.869Z,16.87
2018-09-01T23:10:57.794Z,16.84
2018-09-01T23:13:26.787Z,16.56
2018-09-01T23:15:55.797Z,16.78
2018-09-01T23:18:24.783Z,16.79
2018-09-01T23:20:53.785Z,16.50
2018-09-01T23:23:22.711Z,16.45
2018-09-01T23:25:51.631Z,16.48
2018-09-01T23:28:20.591Z,16.54
2018-09-01T23:30:49.525Z,16.62
2018-09-01T23:33:18.480Z,16.43
2018-09-01T23:35:47.505Z,16.31
2018-09-01T23:38:16.528Z,16.52
2018-09-01T23:40:45.596Z,16.50
2018-09-01T23:43:14.565Z,16.64
2018-09-01T23:45:43.496Z,16.63
2018-09-01T23:48:12.429Z,16.56
2018-09-01T23:50:41.469Z,16.63
2018-09-01T23:53:10.332Z,16.67
2018-09-01T23:55:39.276Z,16.71
2018-09-01T23:58:08.274Z,16.57
